createdAt,value
2023-06-22T00:00:13.190Z,67.46
2023-06-22T00:02:40.777Z,67.25
2023-06-22T00:05:08.490Z,66.00
2023-06-22T00:07:35.760Z,65.87
2023-06-22T00:10:03.010Z,66.10
2023-06-22T00:12:30.280Z,66.05
2023-06-22T00:14:57.486Z,66.21
2023-06-22T00:17:24.866Z,66.70
2023-06-22T00:19:54.886Z,68.04
2023-06-22T00:22:29.851Z,67.55
2023-06-22T00:24:58.185Z,66.95
2023-06-22T00:27:25.522Z,66.62
2023-06-22T00:29:53.062Z,66.45
2023-06-22T00:32:20.525Z,66.03
2023-06-22T00:34:47.775Z,66.01
2023-06-22T00:37:14.971Z,66.18
2023-06-22T00:39:42.659Z,66.21
2023-06-22T00:42:10.037Z,66.19
2023-06-22T00:44:37.781Z,66.17
2023-06-22T00:47:07.891Z,66.61
2023-06-22T00:49:36.362Z,66.20
2023-06-22T00:52:03.866Z,66.38
2023-06-22T00:54:31.335Z,66.51
2023-06-22T01:13:28.411Z,67.18
2023-06-22T01:16:06.696Z,67.05
2023-06-22T01:18:41.555Z,66.58
2023-06-22T01:21:12.925Z,67.73
2023-06-22T01:24:19.741Z,68.91
2023-06-22T01:27:23.213Z,69.65
2023-06-22T01:30:05.630Z,69.75
2023-06-22T01:32:35.970Z,68.73
2023-06-22T01:35:06.614Z,68.09
2023-06-22T01:37:36.612Z,68.42
2023-06-22T01:40:11.016Z,69.46
2023-06-22T01:42:39.420Z,69.40
2023-06-22T01:45:08.545Z,68.81
2023-06-22T01:47:35.909Z,68.94
2023-06-22T01:50:03.262Z,69.03
2023-06-22T01:52:30.582Z,68.91
2023-06-22T01:54:59.210Z,68.93
2023-06-22T01:57:26.633Z,68.56
2023-06-22T02:00:11.364Z,68.57
2023-06-22T02:02:45.889Z,69.13
2023-06-22T02:05:17.674Z,69.72
2023-06-22T02:07:54.082Z,70.71
2023-06-22T02:10:23.495Z,70.40
2023-06-22T02:12:52.579Z,70.78
2023-06-22T02:15:20.611Z,70.97
2023-06-22T02:17:49.257Z,71.20
2023-06-22T02:20:16.671Z,71.08
2023-06-22T02:22:43.962Z,70.69
2023-06-22T02:25:11.373Z,69.62
2023-06-22T02:27:41.674Z,69.06
2023-06-22T02:30:10.707Z,69.99
2023-06-22T02:32:38.007Z,70.68
2023-06-22T02:35:05.836Z,71.01
2023-06-22T02:37:33.906Z,71.52
2023-06-22T02:40:01.135Z,71.48
2023-06-22T02:42:28.936Z,71.19
2023-06-22T02:44:56.134Z,71.36
2023-06-22T02:47:23.477Z,70.15
2023-06-22T02:49:50.757Z,69.98
2023-06-22T02:52:18.035Z,69.63
2023-06-22T02:54:47.279Z,69.54
2023-06-22T02:57:15.146Z,69.43
2023-06-22T03:03:22.338Z,69.64
2023-06-22T03:05:39.147Z,70.20
2023-06-22T03:08:06.397Z,69.90
2023-06-22T03:10:33.578Z,69.77
2023-06-22T03:13:00.797Z,69.45
2023-06-22T03:15:30.837Z,69.97
2023-06-22T03:17:58.311Z,70.26
2023-06-22T03:20:26.606Z,69.82
2023-06-22T03:22:54.241Z,69.70
2023-06-22T03:25:21.586Z,69.81
2023-06-22T03:27:49.486Z,69.42
2023-06-22T03:30:16.709Z,69.63
2023-06-22T03:32:44.805Z,69.71
2023-06-22T03:35:15.248Z,69.56
2023-06-22T03:37:42.709Z,69.65
2023-06-22T03:40:10.414Z,69.97
2023-06-22T03:42:37.927Z,69.64
2023-06-22T03:45:05.753Z,70.01
2023-06-22T03:47:33.971Z,70.18
2023-06-22T03:50:01.492Z,69.86
2023-06-22T03:52:28.879Z,70.02
2023-06-22T03:54:56.088Z,69.97
2023-06-22T03:57:23.454Z,69.62
2023-06-22T03:59:50.939Z,69.79
2023-06-22T04:02:18.164Z,69.83
2023-06-22T04:04:45.608Z,69.60
2023-06-22T04:07:12.962Z,69.75
2023-06-22T04:09:40.284Z,69.48
2023-06-22T04:12:08.082Z,69.88
2023-06-22T04:14:35.606Z,69.79
2023-06-22T04:17:03.173Z,69.67
2023-06-22T04:19:30.445Z,70.00
2023-06-22T04:21:57.847Z,69.77
2023-06-22T04:24:25.072Z,69.62
2023-06-22T04:26:56.050Z,69.82
2023-06-22T04:29:30.191Z,69.43
2023-06-22T04:31:59.717Z,69.47
2023-06-22T04:34:29.774Z,69.19
2023-06-22T04:36:57.097Z,69.46
2023-06-22T04:39:25.170Z,69.13
2023-06-22T04:41:52.656Z,69.45
2023-06-22T04:44:26.358Z,69.13
2023-06-22T04:47:03.348Z,69.26
2023-06-22T04:49:34.963Z,69.17
2023-06-22T04:52:07.515Z,69.33
2023-06-22T04:54:36.639Z,68.90
2023-06-22T04:57:05.729Z,68.98
2023-06-22T04:59:33.082Z,68.63
2023-06-22T05:02:02.344Z,69.03
2023-06-22T05:04:34.666Z,69.03
2023-06-22T05:07:03.587Z,68.75
2023-06-22T05:09:31.476Z,68.70
2023-06-22T05:11:59.064Z,69.23
2023-06-22T05:14:26.357Z,69.22
2023-06-22T05:16:54.287Z,68.82
2023-06-22T05:19:21.584Z,68.93
2023-06-22T05:21:48.770Z,68.43
2023-06-22T05:24:16.453Z,68.66
2023-06-22T05:26:47.020Z,69.05
2023-06-22T05:29:14.572Z,68.90
2023-06-22T05:31:42.863Z,68.53
2023-06-22T05:34:10.118Z,68.88
2023-06-22T05:36:37.330Z,68.75
2023-06-22T05:39:13.863Z,68.67
2023-06-22T05:41:41.357Z,68.88
2023-06-22T05:44:08.626Z,68.88
2023-06-22T05:46:36.140Z,68.97
2023-06-22T05:49:03.382Z,68.64
2023-06-22T05:51:30.676Z,68.52
2023-06-22T05:53:57.981Z,68.58
2023-06-22T05:56:25.286Z,68.49
2023-06-22T05:58:52.839Z,68.60
2023-06-22T06:01:20.069Z,68.87
2023-06-22T06:03:47.528Z,68.98
2023-06-22T06:06:14.958Z,69.31
2023-06-22T06:08:42.649Z,69.46
2023-06-22T06:11:09.906Z,69.32
2023-06-22T06:13:38.501Z,69.03
2023-06-22T06:16:05.823Z,69.29
2023-06-22T06:18:33.125Z,69.13
2023-06-22T06:21:00.471Z,68.93
2023-06-22T06:23:27.634Z,69.38
2023-06-22T06:25:54.883Z,69.31
2023-06-22T06:28:23.301Z,69.10
2023-06-22T06:30:50.508Z,69.11
2023-06-22T06:33:17.719Z,69.62
2023-06-22T06:35:45.016Z,69.48
2023-06-22T06:38:12.172Z,68.94
2023-06-22T06:40:39.505Z,68.80
2023-06-22T06:43:06.732Z,68.68
2023-06-22T06:45:36.012Z,68.31
2023-06-22T06:48:03.671Z,68.02
2023-06-22T06:50:32.411Z,67.88
2023-06-22T06:53:00.428Z,67.61
2023-06-22T06:55:27.836Z,67.26
2023-06-22T06:57:55.085Z,66.75
2023-06-22T07:00:22.477Z,67.05
2023-06-22T07:02:50.278Z,67.46
2023-06-22T07:05:17.684Z,67.73
2023-06-22T07:07:44.941Z,67.37
2023-06-22T07:10:12.746Z,66.61
2023-06-22T07:12:40.202Z,66.48
2023-06-22T07:15:09.840Z,66.09
2023-06-22T07:17:38.143Z,66.05
2023-06-22T07:20:11.584Z,65.91
2023-06-22T07:22:43.999Z,66.00
2023-06-22T07:25:15.635Z,66.14
2023-06-22T07:27:57.595Z,66.69
2023-06-22T07:30:24.929Z,66.22
2023-06-22T07:32:52.159Z,66.05
2023-06-22T07:37:46.844Z,66.48
2023-06-22T07:40:14.410Z,65.40
2023-06-22T07:42:41.768Z,65.67
2023-06-22T07:45:09.704Z,65.38
2023-06-22T07:47:37.295Z,64.75
2023-06-22T07:50:05.563Z,64.43
2023-06-22T07:52:33.567Z,64.50
2023-06-22T07:55:01.051Z,63.60
2023-06-22T07:57:35.549Z,63.67
2023-06-22T08:00:16.183Z,63.68
2023-06-22T08:02:45.590Z,63.72
2023-06-22T08:05:21.027Z,62.82
2023-06-22T08:08:00.891Z,63.33
2023-06-22T08:10:28.578Z,62.84
2023-06-22T08:12:55.807Z,61.61
2023-06-22T08:15:23.396Z,62.36
2023-06-22T08:17:51.045Z,61.98
2023-06-22T08:20:21.104Z,61.35
2023-06-22T08:22:48.371Z,60.33
2023-06-22T08:25:15.826Z,59.11
2023-06-22T08:27:46.450Z,58.70
2023-06-22T08:30:13.815Z,58.63
2023-06-22T08:32:41.491Z,59.12
2023-06-22T08:35:12.113Z,57.83
2023-06-22T08:37:40.715Z,58.73
2023-06-22T08:40:10.866Z,58.24
2023-06-22T08:42:39.469Z,57.87
2023-06-22T08:45:07.532Z,58.06
2023-06-22T08:47:34.869Z,58.13
2023-06-22T08:50:04.615Z,57.72
2023-06-22T08:52:32.070Z,57.90
2023-06-22T08:55:02.323Z,57.70
2023-06-22T08:57:30.281Z,57.38
2023-06-22T09:00:00.244Z,57.02
2023-06-22T09:02:32.246Z,57.00
2023-06-22T09:05:00.393Z,57.35
2023-06-22T09:07:28.035Z,56.78
2023-06-22T09:09:55.293Z,57.27
2023-06-22T09:12:26.874Z,56.72
2023-06-22T09:14:54.900Z,55.71
2023-06-22T09:17:23.043Z,55.06
2023-06-22T09:19:50.316Z,54.67
2023-06-22T09:22:17.698Z,54.04
2023-06-22T09:24:44.985Z,53.57
2023-06-22T09:27:12.390Z,53.92
2023-06-22T09:29:39.660Z,53.34
2023-06-22T09:32:07.400Z,53.09
2023-06-22T09:34:34.885Z,53.17
2023-06-22T09:37:02.226Z,53.64
2023-06-22T09:39:29.539Z,54.01
2023-06-22T09:41:56.857Z,54.31
2023-06-22T09:44:24.069Z,53.58
2023-06-22T09:46:51.379Z,53.10
2023-06-22T09:49:20.458Z,53.81
2023-06-22T09:51:53.772Z,53.29
2023-06-22T09:54:21.025Z,54.14
2023-06-22T09:56:48.341Z,54.08
2023-06-22T09:59:18.942Z,54.30
2023-06-22T10:01:46.524Z,54.07
2023-06-22T10:04:14.228Z,54.15
2023-06-22T10:06:42.054Z,54.47
2023-06-22T10:09:09.789Z,54.70
2023-06-22T10:11:38.354Z,54.53
2023-06-22T10:14:05.702Z,54.85
2023-06-22T10:16:33.914Z,54.83
2023-06-22T10:19:01.189Z,54.46
2023-06-22T10:21:29.933Z,53.92
2023-06-22T10:23:57.225Z,53.29
2023-06-22T10:26:24.683Z,53.83
2023-06-22T10:28:55.434Z,53.54
2023-06-22T10:31:34.976Z,53.29
2023-06-22T10:34:02.335Z,53.08
2023-06-22T10:36:29.726Z,52.57
2023-06-22T10:38:57.222Z,52.97
2023-06-22T10:41:24.509Z,52.65
2023-06-22T10:43:51.789Z,52.88
2023-06-22T10:46:18.939Z,53.03
2023-06-22T10:48:46.188Z,52.06
2023-06-22T10:51:13.452Z,51.33
2023-06-22T10:53:40.765Z,51.58
2023-06-22T10:56:08.028Z,51.89
2023-06-22T10:58:35.229Z,52.02
2023-06-22T11:01:04.154Z,52.23
2023-06-22T11:03:31.524Z,51.52
2023-06-22T11:05:58.793Z,51.31
2023-06-22T11:08:26.064Z,51.09
2023-06-22T11:10:53.925Z,50.23
2023-06-22T11:13:21.248Z,50.71
2023-06-22T11:15:48.577Z,50.84
2023-06-22T11:18:15.815Z,50.81
2023-06-22T11:20:43.670Z,50.54
2023-06-22T11:23:11.121Z,50.80
2023-06-22T11:25:39.611Z,50.92
2023-06-22T11:28:06.875Z,51.96
2023-06-22T11:30:35.322Z,51.88
2023-06-22T11:33:02.784Z,51.94
2023-06-22T11:35:30.032Z,51.75
2023-06-22T11:37:57.468Z,52.06
2023-06-22T11:40:24.761Z,51.59
2023-06-22T11:42:52.382Z,51.27
2023-06-22T11:45:20.220Z,51.03
2023-06-22T11:47:47.903Z,50.19
2023-06-22T11:50:15.427Z,50.19
2023-06-22T11:52:42.737Z,50.28
2023-06-22T11:55:10.226Z,50.51
2023-06-22T11:57:38.665Z,50.00
2023-06-22T12:00:19.225Z,50.20
2023-06-22T12:02:46.685Z,50.12
2023-06-22T12:05:14.198Z,49.42
2023-06-22T12:07:41.474Z,48.64
2023-06-22T12:10:09.296Z,48.78
2023-06-22T12:12:36.524Z,48.86
2023-06-22T12:15:05.172Z,48.72
2023-06-22T12:17:35.488Z,48.90
2023-06-22T12:20:07.467Z,49.13
2023-06-22T12:22:35.508Z,49.47
2023-06-22T12:25:02.811Z,48.85
2023-06-22T12:27:32.769Z,48.92
2023-06-22T12:30:00.073Z,48.75
2023-06-22T12:32:27.548Z,48.12
2023-06-22T12:34:54.895Z,47.22
2023-06-22T12:37:22.293Z,46.95
2023-06-22T12:39:50.008Z,47.15
2023-06-22T12:42:17.871Z,47.13
2023-06-22T12:44:45.749Z,47.73
2023-06-22T12:47:14.441Z,48.06
2023-06-22T12:49:41.729Z,47.77
2023-06-22T12:52:12.660Z,47.97
2023-06-22T12:54:50.419Z,48.16
2023-06-22T12:57:22.111Z,48.62
2023-06-22T12:59:49.436Z,49.05
2023-06-22T13:02:16.974Z,48.62
2023-06-22T13:04:44.530Z,48.21
2023-06-22T13:09:42.368Z,48.94
2023-06-22T13:12:10.083Z,48.72
2023-06-22T13:14:37.313Z,48.53
2023-06-22T13:17:04.649Z,48.44
2023-06-22T13:19:33.749Z,48.63
2023-06-22T13:22:01.430Z,48.94
2023-06-22T13:24:28.907Z,48.48
2023-06-22T13:26:56.374Z,48.81
2023-06-22T13:29:23.634Z,48.59
2023-06-22T13:31:54.052Z,48.58
2023-06-22T13:34:21.509Z,49.12
2023-06-22T13:36:48.761Z,48.94
2023-06-22T13:39:15.983Z,48.95
2023-06-22T13:41:45.733Z,49.90
2023-06-22T13:44:13.003Z,50.41
2023-06-22T13:46:40.345Z,51.05
2023-06-22T13:49:07.670Z,51.08
2023-06-22T13:51:35.031Z,51.57
2023-06-22T13:54:02.286Z,51.23
2023-06-22T13:56:29.866Z,51.20
2023-06-22T13:58:57.305Z,51.14
2023-06-22T14:01:24.491Z,50.97
2023-06-22T14:03:51.936Z,51.83
2023-06-22T14:06:19.272Z,51.65
2023-06-22T14:08:46.521Z,51.67
2023-06-22T14:11:15.032Z,52.04
2023-06-22T14:13:44.260Z,52.66
2023-06-22T14:16:11.643Z,52.11
2023-06-22T14:18:38.951Z,52.44
2023-06-22T14:21:06.168Z,52.21
2023-06-22T14:23:33.461Z,52.79
2023-06-22T14:26:00.870Z,52.54
2023-06-22T14:28:28.573Z,52.59
2023-06-22T14:30:55.820Z,52.91
2023-06-22T14:33:23.272Z,52.71
2023-06-22T14:35:50.725Z,53.02
2023-06-22T14:38:17.949Z,53.08
2023-06-22T14:41:05.753Z,53.66
2023-06-22T14:43:32.814Z,53.83
2023-06-22T14:46:00.138Z,54.33
2023-06-22T14:48:27.516Z,54.21
2023-06-22T14:50:56.435Z,54.67
2023-06-22T14:53:27.319Z,54.59
2023-06-22T14:55:55.974Z,54.75
2023-06-22T14:58:23.334Z,54.91
2023-06-22T15:00:51.289Z,55.01
2023-06-22T15:03:23.141Z,54.83
2023-06-22T15:05:50.591Z,55.78
2023-06-22T15:08:17.889Z,55.87
2023-06-22T15:10:45.164Z,55.92
2023-06-22T15:13:12.628Z,56.08
2023-06-22T15:15:41.093Z,56.25
2023-06-22T15:18:08.464Z,56.51
2023-06-22T15:20:35.780Z,56.41
2023-06-22T15:23:03.186Z,57.23
2023-06-22T15:25:30.497Z,57.50
2023-06-22T15:27:57.731Z,58.04
2023-06-22T15:30:24.954Z,58.72
2023-06-22T15:32:52.222Z,59.26
2023-06-22T15:35:19.967Z,59.94
2023-06-22T15:37:47.189Z,59.96
2023-06-22T15:40:14.538Z,60.47
2023-06-22T15:42:41.844Z,60.96
2023-06-22T15:45:09.748Z,60.71
2023-06-22T15:47:38.356Z,61.06
2023-06-22T15:50:06.239Z,61.19
2023-06-22T15:52:33.385Z,61.74
2023-06-22T15:55:01.867Z,62.11
2023-06-22T15:57:30.425Z,62.02
2023-06-22T15:59:57.784Z,62.77
2023-06-22T16:02:25.285Z,62.92
2023-06-22T16:04:54.398Z,62.33
2023-06-22T16:07:21.652Z,62.76
2023-06-22T16:09:48.851Z,63.85
2023-06-22T16:12:16.189Z,63.62
2023-06-22T16:14:44.671Z,64.25
2023-06-22T16:17:11.918Z,64.76
2023-06-22T16:19:39.131Z,64.81
2023-06-22T16:22:07.072Z,65.45
2023-06-22T16:24:34.424Z,66.33
2023-06-22T16:27:01.690Z,66.29
2023-06-22T16:29:29.881Z,67.06
2023-06-22T16:31:57.221Z,67.86
2023-06-22T16:34:24.524Z,67.87
2023-06-22T16:36:53.341Z,68.64
2023-06-22T16:39:21.621Z,69.08
2023-06-22T16:41:48.947Z,69.59
2023-06-22T16:44:16.285Z,70.24
2023-06-22T16:46:45.646Z,69.57
2023-06-22T16:49:13.076Z,68.95
2023-06-22T16:51:40.472Z,69.35
2023-06-22T16:54:08.345Z,69.61
2023-06-22T16:56:35.698Z,69.79
2023-06-22T16:59:07.619Z,70.64
2023-06-22T17:01:36.645Z,71.05
2023-06-22T17:04:10.200Z,71.50
2023-06-22T17:06:50.879Z,71.65
2023-06-22T17:09:18.373Z,72.27
2023-06-22T17:11:46.223Z,71.85
2023-06-22T17:14:13.508Z,71.29
2023-06-22T17:16:44.301Z,71.13
2023-06-22T17:19:12.316Z,71.29
2023-06-22T17:21:40.607Z,70.90
2023-06-22T17:24:08.045Z,71.08
2023-06-22T17:26:35.394Z,71.57
2023-06-22T17:29:02.822Z,71.57
2023-06-22T17:31:41.964Z,72.05
2023-06-22T17:34:10.413Z,71.92
2023-06-22T17:36:51.932Z,71.78
2023-06-22T17:39:20.810Z,71.65
2023-06-22T17:41:49.271Z,71.38
2023-06-22T17:44:21.263Z,71.28
2023-06-22T17:46:53.285Z,71.08
2023-06-22T17:49:20.520Z,71.43
2023-06-22T17:51:51.929Z,70.92
2023-06-22T17:54:19.364Z,71.88
2023-06-22T17:56:51.512Z,71.37
2023-06-22T17:59:21.961Z,71.55
2023-06-22T18:01:49.243Z,71.48
2023-06-22T18:04:20.054Z,71.54
2023-06-22T18:06:48.568Z,71.66
2023-06-22T18:09:17.550Z,71.99
2023-06-22T18:11:47.154Z,71.99
2023-06-22T18:14:19.298Z,72.07
2023-06-22T18:16:48.256Z,72.16
2023-06-22T18:19:16.837Z,72.82
2023-06-22T18:21:49.853Z,73.10
2023-06-22T18:24:18.875Z,73.56
2023-06-22T18:26:46.824Z,73.66
2023-06-22T18:29:14.481Z,73.19
2023-06-22T18:31:44.290Z,74.16
2023-06-22T18:34:13.215Z,73.54
2023-06-22T18:36:47.451Z,73.76
2023-06-22T18:39:16.423Z,73.60
2023-06-22T18:41:51.221Z,73.67
2023-06-22T18:44:31.851Z,74.01
2023-06-22T18:47:02.189Z,74.00
2023-06-22T18:49:49.573Z,74.71
2023-06-22T18:52:26.951Z,75.45
2023-06-22T18:54:56.175Z,77.05
2023-06-22T18:57:23.606Z,77.90
2023-06-22T18:59:52.547Z,78.21
2023-06-22T19:02:29.106Z,78.94
2023-06-22T19:05:14.755Z,79.58
2023-06-22T19:07:54.504Z,79.51
2023-06-22T19:10:30.100Z,79.25
2023-06-22T19:13:17.668Z,78.82
2023-06-22T19:15:45.699Z,78.77
2023-06-22T19:18:16.954Z,78.27
2023-06-22T19:20:49.236Z,78.63
2023-06-22T19:23:38.066Z,78.28
2023-06-22T19:26:13.316Z,78.69
2023-06-22T19:28:54.280Z,78.87
2023-06-22T19:31:23.369Z,79.23
2023-06-22T19:34:06.107Z,79.03
2023-06-22T19:36:37.347Z,79.07
2023-06-22T19:39:05.777Z,79.71
2023-06-22T19:41:36.215Z,79.34
2023-06-22T19:44:05.272Z,79.04
2023-06-22T19:46:33.573Z,80.08
2023-06-22T19:49:01.535Z,80.05
2023-06-22T19:51:34.180Z,79.69
2023-06-22T19:54:08.075Z,79.84
2023-06-22T19:56:37.528Z,80.05
2023-06-22T19:59:17.038Z,80.29
2023-06-22T20:01:47.609Z,80.27
2023-06-22T20:04:15.330Z,80.38
2023-06-22T20:07:01.411Z,80.57
2023-06-22T20:09:29.271Z,79.99
2023-06-22T20:11:59.720Z,80.54
2023-06-22T20:14:36.195Z,79.79
2023-06-22T20:17:10.106Z,79.78
2023-06-22T20:19:48.484Z,80.10
2023-06-22T20:22:15.704Z,80.32
2023-06-22T20:24:46.303Z,79.46
2023-06-22T20:27:15.510Z,79.96
2023-06-22T20:29:44.713Z,80.00
2023-06-22T20:32:15.570Z,80.21
2023-06-22T20:34:49.329Z,79.39
2023-06-22T20:37:23.416Z,79.32
2023-06-22T20:39:51.006Z,79.58
2023-06-22T20:42:19.110Z,79.55
2023-06-22T20:44:52.090Z,79.48
2023-06-22T20:47:21.930Z,79.76
2023-06-22T20:49:50.548Z,79.35
2023-06-22T20:52:18.868Z,79.50
2023-06-22T20:54:46.746Z,79.61
2023-06-22T20:57:14.026Z,79.40
2023-06-22T20:59:41.398Z,79.68
2023-06-22T21:02:09.497Z,79.43
2023-06-22T21:04:38.026Z,79.70
2023-06-22T21:07:05.774Z,79.55
2023-06-22T21:09:46.102Z,79.59
2023-06-22T21:12:17.991Z,79.37
2023-06-22T21:14:45.359Z,79.02
2023-06-22T21:17:12.773Z,78.91
2023-06-22T21:19:39.977Z,78.68
2023-06-22T21:22:07.604Z,78.57
2023-06-22T21:24:34.915Z,78.69
2023-06-22T21:27:02.704Z,78.41
2023-06-22T21:29:29.996Z,78.02
2023-06-22T21:31:57.361Z,77.79
2023-06-22T21:34:24.788Z,77.34
2023-06-22T21:36:52.124Z,77.04
2023-06-22T21:39:20.122Z,77.70
2023-06-22T21:41:47.402Z,77.30
2023-06-22T21:44:14.758Z,77.09
2023-06-22T21:46:41.997Z,76.73
2023-06-22T21:49:09.173Z,76.85
2023-06-22T21:51:36.500Z,76.96
2023-06-22T21:54:04.089Z,77.00
2023-06-22T21:56:33.945Z,77.11
2023-06-22T21:59:01.247Z,77.39
2023-06-22T22:01:28.982Z,77.06
2023-06-22T22:03:56.280Z,77.30
2023-06-22T22:06:24.580Z,77.30
2023-06-22T22:08:51.881Z,77.65
2023-06-22T22:11:19.200Z,77.72
2023-06-22T22:13:46.745Z,77.88
2023-06-22T22:16:15.211Z,78.29
2023-06-22T22:18:42.637Z,78.22
2023-06-22T22:21:09.984Z,78.22
2023-06-22T22:23:37.270Z,77.96
2023-06-22T22:26:04.950Z,77.88
2023-06-22T22:28:35.607Z,78.16
2023-06-22T22:31:02.946Z,78.55
2023-06-22T22:33:30.636Z,78.78
2023-06-22T22:36:00.582Z,78.96
2023-06-22T22:38:27.904Z,79.77
2023-06-22T22:40:55.158Z,79.68
2023-06-22T22:43:22.422Z,79.69
2023-06-22T22:45:49.866Z,79.35
2023-06-22T22:48:17.324Z,79.56
2023-06-22T22:50:44.818Z,79.09
2023-06-22T22:53:12.039Z,79.89
2023-06-22T22:55:39.260Z,79.73
2023-06-22T22:58:06.533Z,80.03
2023-06-22T23:00:33.799Z,80.06
2023-06-22T23:03:03.275Z,81.11
2023-06-22T23:05:30.825Z,80.58
2023-06-22T23:07:58.220Z,80.49
2023-06-22T23:10:25.442Z,80.92
2023-06-22T23:12:52.726Z,81.17
2023-06-22T23:15:20.175Z,81.10
2023-06-22T23:17:47.454Z,81.39
2023-06-22T23:20:18.557Z,81.64
2023-06-22T23:22:45.747Z,81.30
2023-06-22T23:25:13.584Z,81.33
2023-06-22T23:27:40.833Z,81.29
2023-06-22T23:30:11.257Z,81.17
2023-06-22T23:32:39.483Z,81.16
2023-06-22T23:35:11.304Z,81.34
2023-06-22T23:37:38.725Z,80.95
2023-06-22T23:40:08.262Z,81.02
2023-06-22T23:42:35.523Z,80.80
2023-06-22T23:45:02.742Z,80.88
2023-06-22T23:47:30.315Z,80.94
2023-06-22T23:49:57.576Z,80.52
2023-06-22T23:52:24.741Z,80.99
2023-06-22T23:54:51.944Z,81.05
2023-06-22T23:57:19.144Z,81.03
2023-06-22T23:59:51.833Z,81.38
